Time,TemperatureF,DewpointF,PressureIn,WindDirection,WindDirectionDegrees,WindSpeedMPH,WindSpeedGustMPH,Humidity,HourlyPrecipIn,Conditions,Clouds,dailyrainin,SoftwareType,DateUTC
2013-03-30 00:02:00,53.0,51.0,30.16,NE,49,0.0,1.0,93,0.00,,,0.13,,2013-03-30 05:02:00,
2013-03-30 00:12:00,53.0,51.0,30.16,NE,49,0.0,1.0,93,0.00,,,0.13,,2013-03-30 05:12:00,
2013-03-30 00:22:00,53.0,51.0,30.16,NE,49,0.0,1.0,93,0.00,,,0.13,,2013-03-30 05:22:00,
2013-03-30 00:32:00,53.0,51.0,30.16,NE,49,0.0,0.0,93,0.00,,,0.13,,2013-03-30 05:32:00,
2013-03-30 00:42:00,53.0,51.0,30.16,NE,49,0.0,0.0,93,0.00,,,0.13,,2013-03-30 05:42:00,
2013-03-30 00:52:00,53.0,51.0,30.15,NE,55,1.0,5.0,93,0.00,,,0.13,,2013-03-30 05:52:00,
2013-03-30 01:02:00,53.0,51.0,30.15,NE,52,1.0,4.0,93,0.00,,,0.13,,2013-03-30 06:02:00,
2013-03-30 01:11:00,53.0,51.0,30.15,NE,52,1.0,4.0,93,0.00,,,0.13,,2013-03-30 06:11:00,
2013-03-30 01:22:00,53.0,51.0,30.15,East,89,0.0,2.0,93,0.00,,,0.13,,2013-03-30 06:22:00,
2013-03-30 01:32:00,53.0,51.0,30.15,East,97,1.0,7.0,93,0.00,,,0.13,,2013-03-30 06:32:00,
2013-03-30 01:42:00,53.0,51.0,30.15,East,97,1.0,7.0,93,0.00,,,0.13,,2013-03-30 06:42:00,
2013-03-30 01:52:00,53.0,51.0,30.15,ENE,67,1.0,5.0,93,0.00,,,0.13,,2013-03-30 06:52:00,
2013-03-30 02:02:00,53.0,51.0,30.14,ENE,77,0.0,0.0,92,0.00,,,0.13,,2013-03-30 07:02:00,
2013-03-30 02:12:00,53.0,51.0,30.14,ENE,77,0.0,0.0,92,0.00,,,0.13,,2013-03-30 07:12:00,
2013-03-30 02:22:00,52.0,50.0,30.14,ENE,77,0.0,0.0,93,0.00,,,0.13,,2013-03-30 07:22:00,
2013-03-30 02:32:00,52.0,50.0,30.14,East,87,0.0,2.0,93,0.00,,,0.13,,2013-03-30 07:32:00,
2013-03-30 02:42:00,52.0,50.0,30.14,East,87,0.0,2.0,93,0.00,,,0.13,,2013-03-30 07:42:00,
2013-03-30 02:52:00,52.0,50.0,30.13,East,87,0.0,0.0,93,0.00,,,0.13,,2013-03-30 07:52:00,
2013-03-30 03:02:00,51.0,49.0,30.13,East,87,0.0,2.0,93,0.00,,,0.13,,2013-03-30 08:02:00,
2013-03-30 03:12:00,51.0,49.0,30.13,East,87,0.0,2.0,93,0.00,,,0.13,,2013-03-30 08:12:00,
2013-03-30 03:21:00,51.0,49.0,30.13,East,87,0.0,0.0,93,0.00,,,0.13,,2013-03-30 08:21:00,
2013-03-30 03:32:00,51.0,49.0,30.12,ESE,106,0.0,5.0,93,0.00,,,0.13,,2013-03-30 08:32:00,
2013-03-30 03:42:00,51.0,49.0,30.12,ESE,106,0.0,5.0,93,0.00,,,0.13,,2013-03-30 08:42:00,
2013-03-30 03:53:00,51.0,49.0,30.11,ESE,106,0.0,0.0,94,0.00,,,0.13,,2013-03-30 08:53:00,
2013-03-30 04:02:00,50.0,48.0,30.11,ESE,106,0.0,0.0,94,0.00,,,0.13,,2013-03-30 09:02:00,
2013-03-30 04:12:00,50.0,48.0,30.11,ESE,106,0.0,0.0,94,0.00,,,0.13,,2013-03-30 09:12:00,
2013-03-30 04:22:00,50.0,48.0,30.11,ESE,106,0.0,0.0,94,0.00,,,0.13,,2013-03-30 09:22:00,
2013-03-30 04:33:00,50.0,48.0,30.11,ESE,106,0.0,0.0,94,0.00,,,0.13,,2013-03-30 09:33:00,
2013-03-30 04:43:00,50.0,48.0,30.11,ESE,106,0.0,0.0,94,0.00,,,0.13,,2013-03-30 09:43:00,
2013-03-30 04:53:00,50.0,48.0,30.10,ESE,106,0.0,0.0,94,0.00,,,0.13,,2013-03-30 09:53:00,
2013-03-30 05:02:00,49.0,47.0,30.10,ESE,106,0.0,0.0,94,0.00,,,0.13,,2013-03-30 10:02:00,
2013-03-30 05:13:00,49.0,47.0,30.10,ESE,106,0.0,0.0,94,0.00,,,0.13,,2013-03-30 10:13:00,
2013-03-30 05:23:00,49.0,48.0,30.09,ESE,105,0.0,2.0,95,0.00,,,0.13,,2013-03-30 10:23:00,
2013-03-30 05:33:00,49.0,48.0,30.09,ESE,106,0.0,2.0,95,0.00,,,0.13,,2013-03-30 10:33:00,
2013-03-30 05:42:00,49.0,48.0,30.09,ESE,106,0.0,2.0,95,0.00,,,0.13,,2013-03-30 10:42:00,
2013-03-30 05:52:00,50.0,49.0,30.09,ESE,102,0.0,4.0,95,0.00,,,0.13,,2013-03-30 10:52:00,
2013-03-30 06:03:00,50.0,49.0,30.10,ESE,102,0.0,1.0,95,0.00,,,0.13,,2013-03-30 11:03:00,
2013-03-30 06:12:00,50.0,49.0,30.10,ESE,102,0.0,1.0,95,0.00,,,0.13,,2013-03-30 11:12:00,
2013-03-30 06:22:00,50.0,49.0,30.10,ESE,102,0.0,0.0,96,0.00,,,0.13,,2013-03-30 11:22:00,
2013-03-30 06:33:00,50.0,49.0,30.10,East,101,0.0,0.0,96,0.00,,,0.13,,2013-03-30 11:33:00,
2013-03-30 06:42:00,50.0,49.0,30.10,East,101,0.0,0.0,96,0.00,,,0.13,,2013-03-30 11:42:00,
2013-03-30 06:53:00,50.0,49.0,30.10,ESE,102,0.0,0.0,96,0.00,,,0.13,,2013-03-30 11:53:00,
2013-03-30 07:02:00,50.0,49.0,30.10,ESE,102,0.0,0.0,96,0.00,,,0.13,,2013-03-30 12:02:00,
2013-03-30 07:12:00,50.0,49.0,30.10,ESE,102,0.0,0.0,96,0.00,,,0.13,,2013-03-30 12:12:00,
2013-03-30 07:22:00,50.0,49.0,30.10,East,94,0.0,2.0,96,0.00,,,0.13,,2013-03-30 12:22:00,
2013-03-30 07:32:00,50.0,49.0,30.10,ESE,107,1.0,4.0,96,0.00,,,0.13,,2013-03-30 12:32:00,
2013-03-30 07:42:00,50.0,49.0,30.10,ESE,107,1.0,4.0,96,0.00,,,0.13,,2013-03-30 12:42:00,
2013-03-30 07:53:00,50.0,49.0,30.10,ESE,109,0.0,5.0,96,0.00,,,0.13,,2013-03-30 12:53:00,
2013-03-30 08:02:00,50.0,49.0,30.10,ESE,119,0.0,5.0,96,0.00,,,0.13,,2013-03-30 13:02:00,
2013-03-30 08:12:00,50.0,49.0,30.10,ESE,119,0.0,5.0,96,0.00,,,0.13,,2013-03-30 13:12:00,
2013-03-30 08:22:00,50.0,49.0,30.10,ESE,116,0.0,4.0,96,0.00,,,0.13,,2013-03-30 13:22:00,
2013-03-30 08:32:00,50.0,49.0,30.11,East,98,0.0,5.0,96,0.00,,,0.13,,2013-03-30 13:32:00,
2013-03-30 08:42:00,50.0,49.0,30.11,East,98,0.0,5.0,96,0.00,,,0.13,,2013-03-30 13:42:00,
2013-03-30 08:52:00,51.0,50.0,30.11,South,171,0.0,0.0,96,0.00,,,0.13,,2013-03-30 13:52:00,
2013-03-30 09:02:00,51.0,50.0,30.10,East,88,1.0,4.0,96,0.00,,,0.13,,2013-03-30 14:02:00,
2013-03-30 09:11:00,51.0,50.0,30.10,East,88,1.0,4.0,96,0.00,,,0.13,,2013-03-30 14:11:00,
2013-03-30 09:22:00,51.0,50.0,30.10,SE,136,0.0,6.0,96,0.00,,,0.13,,2013-03-30 14:22:00,
2013-03-30 09:32:00,51.0,50.0,30.09,ESE,103,1.0,5.0,95,0.00,,,0.13,,2013-03-30 14:32:00,
2013-03-30 09:42:00,51.0,50.0,30.09,ESE,103,1.0,5.0,95,0.00,,,0.13,,2013-03-30 14:42:00,
2013-03-30 09:52:00,51.0,50.0,30.09,East,88,3.0,7.0,95,0.00,,,0.13,,2013-03-30 14:52:00,
2013-03-30 10:02:00,52.0,51.0,30.09,ESE,108,3.0,5.0,95,0.00,,,0.13,,2013-03-30 15:02:00,
2013-03-30 10:12:00,52.0,51.0,30.09,ESE,108,3.0,5.0,95,0.00,,,0.13,,2013-03-30 15:12:00,
2013-03-30 10:22:00,52.0,50.0,30.09,East,91,0.0,0.0,94,0.00,,,0.13,,2013-03-30 15:22:00,
2013-03-30 10:33:00,53.0,51.0,30.09,ESE,117,0.0,6.0,94,0.00,,,0.13,,2013-03-30 15:33:00,
2013-03-30 10:43:00,53.0,51.0,30.09,ESE,117,0.0,6.0,94,0.00,,,0.13,,2013-03-30 15:43:00,
2013-03-30 10:53:00,53.0,51.0,30.09,ESE,113,0.0,5.0,93,0.00,,,0.13,,2013-03-30 15:53:00,
2013-03-30 11:03:00,53.0,51.0,30.08,East,99,0.0,4.0,93,0.00,,,0.12,,2013-03-30 16:03:00,
2013-03-30 11:13:00,53.0,51.0,30.06,East,89,0.0,6.0,94,0.00,,,0.12,,2013-03-30 16:13:00,
2013-03-30 11:23:00,53.0,51.0,30.06,East,89,0.0,6.0,94,0.00,,,0.12,,2013-03-30 16:23:00,
2013-03-30 11:33:00,53.0,51.0,30.06,East,101,0.0,8.0,94,0.01,,,0.13,,2013-03-30 16:33:00,
2013-03-30 11:43:00,53.0,51.0,30.06,East,101,0.0,8.0,94,0.01,,,0.13,,2013-03-30 16:43:00,
2013-03-30 11:53:00,53.0,51.0,30.07,ESE,111,0.0,4.0,94,0.02,,,0.14,,2013-03-30 16:53:00,
2013-03-30 12:02:00,54.0,53.0,30.07,ESE,112,0.0,0.0,95,0.03,,,0.09,,2013-03-30 17:02:00,
2013-03-30 12:13:00,54.0,53.0,30.07,ESE,112,0.0,0.0,95,0.03,,,0.09,,2013-03-30 17:13:00,
2013-03-30 12:22:00,54.0,53.0,30.08,SSE,153,0.0,2.0,95,0.05,,,0.11,,2013-03-30 17:22:00,
2013-03-30 12:32:00,54.0,53.0,30.08,SSE,153,0.0,0.0,95,0.07,,,0.14,,2013-03-30 17:32:00,
2013-03-30 12:42:00,54.0,53.0,30.08,SSE,153,0.0,0.0,95,0.07,,,0.14,,2013-03-30 17:42:00,
2013-03-30 12:53:00,55.0,54.0,30.07,SSE,153,0.0,0.0,95,0.10,,,0.18,,2013-03-30 17:53:00,
2013-03-30 13:03:00,55.0,54.0,30.06,SSE,153,0.0,1.0,95,0.14,,,0.19,,2013-03-30 18:03:00,
2013-03-30 13:12:00,55.0,54.0,30.05,SSE,153,0.0,0.0,95,0.16,,,0.23,,2013-03-30 18:12:00,
2013-03-30 13:22:00,55.0,54.0,30.05,SSE,153,0.0,0.0,95,0.16,,,0.23,,2013-03-30 18:22:00,
2013-03-30 13:32:00,55.0,54.0,30.04,SE,136,0.0,4.0,95,0.15,,,0.25,,2013-03-30 18:32:00,
2013-03-30 13:42:00,55.0,54.0,30.04,SE,136,0.0,4.0,95,0.15,,,0.25,,2013-03-30 18:42:00,
2013-03-30 13:53:00,56.0,55.0,30.03,SE,132,0.0,5.0,95,0.11,,,0.25,,2013-03-30 18:53:00,
2013-03-30 14:02:00,56.0,55.0,30.02,SE,129,0.0,5.0,95,0.07,,,0.25,,2013-03-30 19:02:00,
2013-03-30 14:13:00,56.0,55.0,30.02,SE,129,0.0,5.0,95,0.07,,,0.25,,2013-03-30 19:13:00,
2013-03-30 14:22:00,56.0,55.0,30.03,South,175,4.0,8.0,95,0.04,,,0.26,,2013-03-30 19:22:00,
2013-03-30 14:32:00,56.0,55.0,30.01,SE,145,0.0,5.0,95,0.05,,,0.29,,2013-03-30 19:32:00,
2013-03-30 14:42:00,56.0,55.0,30.01,SE,145,0.0,5.0,95,0.05,,,0.29,,2013-03-30 19:42:00,
2013-03-30 14:53:00,56.0,55.0,30.01,SSE,157,1.0,5.0,95,0.07,,,0.31,,2013-03-30 19:53:00,
2013-03-30 15:02:00,56.0,55.0,29.99,SSE,153,1.0,9.0,95,0.06,,,0.30,,2013-03-30 20:02:00,
2013-03-30 15:12:00,56.0,55.0,29.99,SSE,153,1.0,9.0,95,0.06,,,0.30,,2013-03-30 20:12:00,
2013-03-30 15:22:00,56.0,55.0,29.98,SE,127,1.0,11.0,95,0.05,,,0.30,,2013-03-30 20:22:00,
2013-03-30 15:32:00,56.0,54.0,29.98,SSE,167,4.0,9.0,94,0.02,,,0.30,,2013-03-30 20:32:00,
2013-03-30 15:42:00,56.0,54.0,29.98,SSE,167,4.0,9.0,94,0.02,,,0.30,,2013-03-30 20:42:00,
2013-03-30 15:53:00,56.0,54.0,29.98,South,179,2.0,8.0,94,0.02,,,0.32,,2013-03-30 20:53:00,
2013-03-30 16:02:00,56.0,54.0,29.97,SE,138,4.0,7.0,94,0.05,,,0.35,,2013-03-30 21:02:00,
2013-03-30 16:12:00,56.0,54.0,29.97,SE,138,4.0,7.0,94,0.05,,,0.35,,2013-03-30 21:12:00,
2013-03-30 16:22:00,57.0,55.0,29.96,South,182,7.0,11.0,94,0.06,,,0.36,,2013-03-30 21:22:00,
2013-03-30 16:43:00,57.0,55.0,29.95,SSE,165,3.0,12.0,94,0.06,,,0.36,,2013-03-30 21:43:00,
2013-03-30 16:53:00,57.0,55.0,29.94,South,185,3.0,10.0,94,0.04,,,0.36,,2013-03-30 21:53:00,
2013-03-30 17:03:00,57.0,55.0,29.94,SE,129,0.0,5.0,94,0.01,,,0.36,,2013-03-30 22:03:00,
2013-03-30 17:13:00,57.0,55.0,29.94,SE,129,0.0,5.0,94,0.01,,,0.36,,2013-03-30 22:13:00,
2013-03-30 17:23:00,57.0,55.0,29.94,SE,130,0.0,1.0,94,0.00,,,0.36,,2013-03-30 22:23:00,
2013-03-30 17:33:00,57.0,55.0,29.93,South,177,1.0,6.0,94,0.00,,,0.36,,2013-03-30 22:33:00,
2013-03-30 17:43:00,57.0,55.0,29.93,South,177,1.0,6.0,94,0.00,,,0.36,,2013-03-30 22:43:00,
2013-03-30 17:53:00,58.0,56.0,29.93,SSE,162,0.0,4.0,94,0.00,,,0.36,,2013-03-30 22:53:00,
2013-03-30 18:02:00,58.0,56.0,29.93,South,182,0.0,4.0,94,0.00,,,0.36,,2013-03-30 23:02:00,
2013-03-30 18:12:00,58.0,56.0,29.93,South,182,0.0,4.0,94,0.00,,,0.36,,2013-03-30 23:12:00,
2013-03-30 18:22:00,58.0,57.0,29.93,South,175,0.0,2.0,95,0.00,,,0.36,,2013-03-30 23:22:00,
2013-03-30 18:32:00,58.0,57.0,29.92,South,172,0.0,3.0,95,0.00,,,0.36,,2013-03-30 23:32:00,
2013-03-30 18:42:00,58.0,57.0,29.92,South,172,0.0,3.0,95,0.00,,,0.36,,2013-03-30 23:42:00,
2013-03-30 18:53:00,58.0,57.0,29.92,SSE,150,0.0,5.0,95,0.00,,,0.36,,2013-03-30 23:53:00,
2013-03-30 19:02:00,58.0,56.0,29.91,South,181,0.0,3.0,94,0.00,,,0.36,,2013-03-31 00:02:00,
2013-03-30 19:12:00,58.0,56.0,29.91,South,181,0.0,3.0,94,0.00,,,0.36,,2013-03-31 00:12:00,
2013-03-30 19:22:00,58.0,56.0,29.91,SSW,209,2.0,7.0,94,0.00,,,0.36,,2013-03-31 00:22:00,
2013-03-30 19:32:00,58.0,56.0,29.91,South,190,0.0,3.0,94,0.00,,,0.36,,2013-03-31 00:32:00,
2013-03-30 19:42:00,58.0,56.0,29.91,South,190,0.0,3.0,94,0.00,,,0.36,,2013-03-31 00:42:00,
2013-03-30 19:53:00,58.0,56.0,29.91,SSW,204,0.0,5.0,94,0.00,,,0.36,,2013-03-31 00:53:00,
2013-03-30 20:02:00,58.0,57.0,29.91,SSW,204,0.0,4.0,95,0.00,,,0.36,,2013-03-31 01:02:00,
2013-03-30 20:12:00,58.0,57.0,29.91,SSW,204,0.0,4.0,95,0.00,,,0.36,,2013-03-31 01:12:00,
2013-03-30 20:22:00,58.0,56.0,29.91,SSW,204,0.0,0.0,94,0.00,,,0.36,,2013-03-31 01:22:00,
2013-03-30 20:32:00,57.0,55.0,29.91,SSW,204,0.0,0.0,94,0.00,,,0.36,,2013-03-31 01:32:00,
2013-03-30 20:42:00,57.0,55.0,29.91,SSW,204,0.0,0.0,94,0.00,,,0.36,,2013-03-31 01:42:00,
2013-03-30 20:53:00,57.0,55.0,29.91,SSW,204,0.0,0.0,94,0.00,,,0.36,,2013-03-31 01:53:00,
2013-03-30 21:02:00,56.0,55.0,29.92,SSW,204,0.0,0.0,95,0.00,,,0.36,,2013-03-31 02:02:00,
2013-03-30 21:12:00,56.0,55.0,29.92,SSW,204,0.0,0.0,95,0.00,,,0.36,,2013-03-31 02:12:00,
2013-03-30 21:22:00,56.0,54.0,29.93,SSW,204,0.0,0.0,94,0.00,,,0.36,,2013-03-31 02:22:00,
2013-03-30 21:32:00,56.0,55.0,29.93,SSW,206,0.0,3.0,95,0.00,,,0.36,,2013-03-31 02:32:00,
2013-03-30 21:42:00,56.0,55.0,29.93,SSW,206,0.0,3.0,95,0.00,,,0.36,,2013-03-31 02:42:00,
2013-03-30 21:52:00,56.0,55.0,29.94,SSW,206,0.0,0.0,95,0.00,,,0.36,,2013-03-31 02:52:00,
2013-03-30 22:02:00,56.0,55.0,29.94,SSW,206,0.0,0.0,95,0.00,,,0.36,,2013-03-31 03:02:00,
2013-03-30 22:12:00,56.0,55.0,29.94,SSW,206,0.0,0.0,95,0.00,,,0.36,,2013-03-31 03:12:00,
2013-03-30 22:22:00,56.0,55.0,29.93,SSW,206,0.0,0.0,95,0.00,,,0.36,,2013-03-31 03:22:00,
2013-03-30 22:33:00,55.0,54.0,29.94,SSW,206,0.0,0.0,95,0.00,,,0.36,,2013-03-31 03:33:00,
2013-03-30 22:43:00,55.0,54.0,29.94,SSW,206,0.0,0.0,95,0.00,,,0.36,,2013-03-31 03:43:00,
2013-03-30 22:54:00,55.0,54.0,29.93,SSW,206,0.0,0.0,95,0.00,,,0.36,,2013-03-31 03:54:00,
2013-03-30 23:02:00,55.0,-99.9,29.94,SSW,206,0.0,0.0,95,0.00,,,0.36,,2013-03-31 04:02:00,
2013-03-30 23:13:00,55.0,54.0,29.94,SSW,206,0.0,0.0,95,0.00,,,0.36,,2013-03-31 04:13:00,
2013-03-30 23:23:00,55.0,54.0,29.94,SSW,206,0.0,0.0,96,0.00,,,0.36,,2013-03-31 04:23:00,
2013-03-30 23:32:00,56.0,55.0,29.93,SSW,205,1.0,3.0,96,0.00,,,0.36,,2013-03-31 04:32:00,
2013-03-30 23:42:00,56.0,55.0,29.93,SSW,205,1.0,3.0,96,0.00,,,0.36,,2013-03-31 04:42:00,
2013-03-30 23:52:00,56.0,55.0,29.93,SSW,209,1.0,4.0,96,0.00,,,0.36,,2013-03-31 04:52:00,